sensor_id;sensor_type;location;lat;lon;timestamp;pressure;altitude;pressure_sealevel;temperature;humidity
29239;BME280;16267;48.194;11.546;2023-02-02T00:01:19;96361.75;;;4.36;67.78
29239;BME280;16267;48.194;11.546;2023-02-02T00:03:47;96356.91;;;4.42;67.85
29239;BME280;16267;48.194;11.546;2023-02-02T00:06:22;96355.78;;;4.43;67.87
29239;BME280;16267;48.194;11.546;2023-02-02T00:08:48;96334.94;;;4.45;68.08
29239;BME280;16267;48.194;11.546;2023-02-02T00:11:16;96354.47;;;4.33;68.37
29239;BME280;16267;48.194;11.546;2023-02-02T00:13:42;96357.97;;;4.37;68.23
29239;BME280;16267;48.194;11.546;2023-02-02T00:19:01;96360.00;;;4.44;68.55
29239;BME280;16267;48.194;11.546;2023-02-02T00:21:27;96350.19;;;4.48;68.65
29239;BME280;16267;48.194;11.546;2023-02-02T00:23:53;96354.97;;;4.39;68.41
29239;BME280;16267;48.194;11.546;2023-02-02T00:26:20;96356.22;;;4.45;69.21
29239;BME280;16267;48.194;11.546;2023-02-02T00:28:46;96345.94;;;4.43;69.96
29239;BME280;16267;48.194;11.546;2023-02-02T00:31:12;96354.59;;;4.40;70.30
29239;BME280;16267;48.194;11.546;2023-02-02T00:33:38;96350.56;;;4.27;71.10
29239;BME280;16267;48.194;11.546;2023-02-02T00:36:04;96355.50;;;4.29;71.03
29239;BME280;16267;48.194;11.546;2023-02-02T00:38:31;96350.06;;;4.21;72.20
29239;BME280;16267;48.194;11.546;2023-02-02T00:40:56;96346.78;;;4.28;72.40
29239;BME280;16267;48.194;11.546;2023-02-02T00:43:22;96347.41;;;4.21;72.77
29239;BME280;16267;48.194;11.546;2023-02-02T00:45:48;96339.06;;;4.03;72.96
29239;BME280;16267;48.194;11.546;2023-02-02T00:48:14;96342.84;;;4.02;73.86
29239;BME280;16267;48.194;11.546;2023-02-02T00:50:40;96333.31;;;4.01;74.38
29239;BME280;16267;48.194;11.546;2023-02-02T00:53:06;96345.50;;;4.02;74.42
29239;BME280;16267;48.194;11.546;2023-02-02T00:55:32;96345.00;;;3.97;74.66
29239;BME280;16267;48.194;11.546;2023-02-02T00:57:58;96351.72;;;3.91;76.15
29239;BME280;16267;48.194;11.546;2023-02-02T01:00:25;96349.19;;;3.98;76.36
29239;BME280;16267;48.194;11.546;2023-02-02T01:02:53;96344.84;;;3.90;76.48
29239;BME280;16267;48.194;11.546;2023-02-02T01:05:19;96339.53;;;3.90;76.70
29239;BME280;16267;48.194;11.546;2023-02-02T01:07:46;96338.44;;;3.91;77.08
29239;BME280;16267;48.194;11.546;2023-02-02T01:10:15;96336.34;;;4.00;76.87
29239;BME280;16267;48.194;11.546;2023-02-02T01:12:42;96345.63;;;3.90;77.08
29239;BME280;16267;48.194;11.546;2023-02-02T01:15:10;96345.56;;;3.87;76.97
29239;BME280;16267;48.194;11.546;2023-02-02T01:17:36;96341.78;;;3.88;77.07
29239;BME280;16267;48.194;11.546;2023-02-02T01:20:03;96331.16;;;3.88;76.88
29239;BME280;16267;48.194;11.546;2023-02-02T01:22:29;96333.75;;;3.84;76.80
29239;BME280;16267;48.194;11.546;2023-02-02T01:24:55;96332.22;;;3.83;76.94
29239;BME280;16267;48.194;11.546;2023-02-02T01:27:20;96331.28;;;3.75;76.92
29239;BME280;16267;48.194;11.546;2023-02-02T01:29:46;96330.38;;;3.87;76.91
29239;BME280;16267;48.194;11.546;2023-02-02T01:32:12;96330.47;;;3.91;76.96
29239;BME280;16267;48.194;11.546;2023-02-02T01:34:37;96334.16;;;3.86;76.56
29239;BME280;16267;48.194;11.546;2023-02-02T01:37:09;96320.97;;;3.90;76.76
29239;BME280;16267;48.194;11.546;2023-02-02T01:39:36;96325.94;;;3.91;76.83
29239;BME280;16267;48.194;11.546;2023-02-02T01:42:10;96327.13;;;3.94;76.63
29239;BME280;16267;48.194;11.546;2023-02-02T01:47:35;96315.03;;;3.96;75.72
29239;BME280;16267;48.194;11.546;2023-02-02T01:50:04;96310.81;;;3.95;75.72
29239;BME280;16267;48.194;11.546;2023-02-02T01:52:31;96311.31;;;4.01;75.77
29239;BME280;16267;48.194;11.546;2023-02-02T01:55:05;96317.00;;;3.99;75.63
29239;BME280;16267;48.194;11.546;2023-02-02T01:57:44;96301.41;;;3.98;74.99
29239;BME280;16267;48.194;11.546;2023-02-02T02:00:13;96304.31;;;3.93;74.97
29239;BME280;16267;48.194;11.546;2023-02-02T02:02:44;96320.84;;;4.02;75.07
29239;BME280;16267;48.194;11.546;2023-02-02T02:05:17;96311.94;;;3.94;75.10
29239;BME280;16267;48.194;11.546;2023-02-02T02:07:44;96318.03;;;3.95;74.84
29239;BME280;16267;48.194;11.546;2023-02-02T02:10:11;96315.81;;;3.97;74.44
29239;BME280;16267;48.194;11.546;2023-02-02T02:12:37;96317.88;;;4.07;75.02
29239;BME280;16267;48.194;11.546;2023-02-02T02:15:03;96307.56;;;4.02;74.63
29239;BME280;16267;48.194;11.546;2023-02-02T02:18:07;96305.25;;;4.00;74.70
29239;BME280;16267;48.194;11.546;2023-02-02T02:21:18;96301.06;;;3.99;74.72
29239;BME280;16267;48.194;11.546;2023-02-02T02:34:01;96321.38;;;3.92;75.25
29239;BME280;16267;48.194;11.546;2023-02-02T02:36:55;96308.22;;;3.99;74.71
29239;BME280;16267;48.194;11.546;2023-02-02T02:42:16;96305.56;;;3.99;74.57
29239;BME280;16267;48.194;11.546;2023-02-02T02:44:44;96318.09;;;3.98;74.46
29239;BME280;16267;48.194;11.546;2023-02-02T02:47:11;96305.66;;;4.02;74.18
29239;BME280;16267;48.194;11.546;2023-02-02T02:49:48;96310.69;;;3.88;74.60
29239;BME280;16267;48.194;11.546;2023-02-02T02:52:14;96303.72;;;3.99;74.33
29239;BME280;16267;48.194;11.546;2023-02-02T02:54:52;96296.09;;;3.98;74.09
29239;BME280;16267;48.194;11.546;2023-02-02T03:11:19;96299.59;;;4.02;74.49
29239;BME280;16267;48.194;11.546;2023-02-02T03:13:45;96311.03;;;4.06;74.50
29239;BME280;16267;48.194;11.546;2023-02-02T03:16:14;96315.94;;;4.04;75.63
29239;BME280;16267;48.194;11.546;2023-02-02T03:18:40;96307.97;;;4.04;77.89
29239;BME280;16267;48.194;11.546;2023-02-02T03:21:06;96306.56;;;3.91;79.73
29239;BME280;16267;48.194;11.546;2023-02-02T03:23:33;96309.50;;;3.86;80.46
29239;BME280;16267;48.194;11.546;2023-02-02T03:26:01;96313.41;;;3.92;79.77
29239;BME280;16267;48.194;11.546;2023-02-02T03:28:27;96312.56;;;3.88;80.21
29239;BME280;16267;48.194;11.546;2023-02-02T03:30:54;96316.69;;;3.85;80.22
29239;BME280;16267;48.194;11.546;2023-02-02T03:33:21;96317.03;;;3.84;80.36
29239;BME280;16267;48.194;11.546;2023-02-02T03:35:47;96305.00;;;3.70;81.96
29239;BME280;16267;48.194;11.546;2023-02-02T03:38:13;96319.97;;;3.78;82.34
29239;BME280;16267;48.194;11.546;2023-02-02T03:40:39;96316.31;;;3.67;82.99
29239;BME280;16267;48.194;11.546;2023-02-02T03:43:05;96315.69;;;3.74;83.21
29239;BME280;16267;48.194;11.546;2023-02-02T03:45:31;96321.22;;;3.85;82.76
29239;BME280;16267;48.194;11.546;2023-02-02T03:48:02;96320.13;;;3.86;82.20
29239;BME280;16267;48.194;11.546;2023-02-02T03:50:28;96315.41;;;3.79;82.17
29239;BME280;16267;48.194;11.546;2023-02-02T03:52:53;96322.97;;;3.77;81.66
29239;BME280;16267;48.194;11.546;2023-02-02T03:55:20;96316.88;;;3.76;81.52
29239;BME280;16267;48.194;11.546;2023-02-02T03:57:46;96323.66;;;3.74;82.00
29239;BME280;16267;48.194;11.546;2023-02-02T04:00:12;96313.19;;;3.81;82.20
29239;BME280;16267;48.194;11.546;2023-02-02T04:02:38;96325.97;;;3.75;81.98
29239;BME280;16267;48.194;11.546;2023-02-02T04:05:04;96324.00;;;3.72;82.32
29239;BME280;16267;48.194;11.546;2023-02-02T04:07:30;96325.03;;;3.68;82.31
29239;BME280;16267;48.194;11.546;2023-02-02T04:09:56;96319.63;;;3.80;82.35
29239;BME280;16267;48.194;11.546;2023-02-02T04:12:22;96317.81;;;3.84;82.67
29239;BME280;16267;48.194;11.546;2023-02-02T04:14:48;96312.06;;;3.82;83.13
29239;BME280;16267;48.194;11.546;2023-02-02T04:17:13;96327.72;;;3.87;82.76
29239;BME280;16267;48.194;11.546;2023-02-02T04:19:39;96325.94;;;3.91;82.70
29239;BME280;16267;48.194;11.546;2023-02-02T04:22:05;96324.75;;;3.89;82.41
29239;BME280;16267;48.194;11.546;2023-02-02T04:24:31;96316.53;;;3.78;81.72
29239;BME280;16267;48.194;11.546;2023-02-02T04:26:57;96318.75;;;3.76;81.63
29239;BME280;16267;48.194;11.546;2023-02-02T04:29:22;96316.59;;;3.82;82.09
29239;BME280;16267;48.194;11.546;2023-02-02T04:31:49;96342.47;;;3.85;82.83
29239;BME280;16267;48.194;11.546;2023-02-02T04:34:15;96329.94;;;3.85;83.54
29239;BME280;16267;48.194;11.546;2023-02-02T04:36:41;96327.09;;;3.74;85.47
29239;BME280;16267;48.194;11.546;2023-02-02T04:39:11;96334.88;;;3.83;86.20
29239;BME280;16267;48.194;11.546;2023-02-02T04:41:37;96321.16;;;3.81;86.01
29239;BME280;16267;48.194;11.546;2023-02-02T04:44:03;96337.53;;;3.83;85.35
29239;BME280;16267;48.194;11.546;2023-02-02T04:46:31;96328.09;;;3.86;85.14
29239;BME280;16267;48.194;11.546;2023-02-02T04:48:56;96338.09;;;3.92;85.12
29239;BME280;16267;48.194;11.546;2023-02-02T04:51:22;96340.56;;;3.85;83.62
29239;BME280;16267;48.194;11.546;2023-02-02T04:53:48;96328.16;;;3.89;82.80
29239;BME280;16267;48.194;11.546;2023-02-02T04:56:17;96322.41;;;3.87;82.42
29239;BME280;16267;48.194;11.546;2023-02-02T04:58:44;96332.44;;;3.94;82.24
29239;BME280;16267;48.194;11.546;2023-02-02T05:01:18;96339.41;;;3.83;81.88
29239;BME280;16267;48.194;11.546;2023-02-02T05:03:45;96340.50;;;3.82;82.64
29239;BME280;16267;48.194;11.546;2023-02-02T05:06:11;96353.69;;;3.94;82.72
29239;BME280;16267;48.194;11.546;2023-02-02T05:08:37;96333.91;;;3.91;81.36
29239;BME280;16267;48.194;11.546;2023-02-02T05:11:15;96351.63;;;3.87;81.79
29239;BME280;16267;48.194;11.546;2023-02-02T05:13:51;96339.97;;;3.92;82.03
29239;BME280;16267;48.194;11.546;2023-02-02T05:16:17;96345.41;;;3.99;82.18
29239;BME280;16267;48.194;11.546;2023-02-02T05:18:50;96338.94;;;3.96;81.74
29239;BME280;16267;48.194;11.546;2023-02-02T05:21:16;96344.91;;;3.93;82.05
29239;BME280;16267;48.194;11.546;2023-02-02T05:23:42;96359.25;;;3.89;82.01
29239;BME280;16267;48.194;11.546;2023-02-02T05:26:16;96361.81;;;3.85;83.13
29239;BME280;16267;48.194;11.546;2023-02-02T05:28:43;96361.47;;;3.87;83.96
29239;BME280;16267;48.194;11.546;2023-02-02T05:31:09;96369.19;;;3.92;83.94
29239;BME280;16267;48.194;11.546;2023-02-02T05:33:35;96371.91;;;3.95;84.52
29239;BME280;16267;48.194;11.546;2023-02-02T05:36:01;96360.94;;;3.97;84.42
29239;BME280;16267;48.194;11.546;2023-02-02T05:38:29;96345.50;;;4.02;83.93
29239;BME280;16267;48.194;11.546;2023-02-02T05:40:55;96353.69;;;3.94;83.70
29239;BME280;16267;48.194;11.546;2023-02-02T05:43:25;96351.59;;;4.03;83.63
29239;BME280;16267;48.194;11.546;2023-02-02T05:45:51;96358.16;;;4.09;82.98
29239;BME280;16267;48.194;11.546;2023-02-02T05:48:17;96360.22;;;4.16;83.55
29239;BME280;16267;48.194;11.546;2023-02-02T05:51:05;96343.06;;;4.13;83.83
29239;BME280;16267;48.194;11.546;2023-02-02T05:53:34;96350.69;;;4.15;84.02
29239;BME280;16267;48.194;11.546;2023-02-02T05:56:00;96353.22;;;4.08;83.77
29239;BME280;16267;48.194;11.546;2023-02-02T05:58:26;96348.00;;;3.95;83.63
29239;BME280;16267;48.194;11.546;2023-02-02T06:00:53;96362.47;;;3.98;83.55
29239;BME280;16267;48.194;11.546;2023-02-02T06:03:19;96349.63;;;4.00;83.49
29239;BME280;16267;48.194;11.546;2023-02-02T06:05:45;96350.41;;;4.00;82.74
29239;BME280;16267;48.194;11.546;2023-02-02T06:08:10;96357.72;;;4.07;82.67
29239;BME280;16267;48.194;11.546;2023-02-02T06:10:43;96366.66;;;3.99;81.80
29239;BME280;16267;48.194;11.546;2023-02-02T06:13:08;96339.94;;;4.08;82.29
29239;BME280;16267;48.194;11.546;2023-02-02T06:15:35;96354.25;;;4.03;82.41
29239;BME280;16267;48.194;11.546;2023-02-02T06:18:01;96362.44;;;4.14;82.59
29239;BME280;16267;48.194;11.546;2023-02-02T06:20:27;96345.38;;;4.15;82.08
29239;BME280;16267;48.194;11.546;2023-02-02T06:22:53;96366.97;;;4.13;81.55
29239;BME280;16267;48.194;11.546;2023-02-02T06:25:19;96356.25;;;4.10;80.76
29239;BME280;16267;48.194;11.546;2023-02-02T06:27:45;96356.34;;;4.13;80.94
29239;BME280;16267;48.194;11.546;2023-02-02T06:30:12;96349.16;;;4.14;81.12
29239;BME280;16267;48.194;11.546;2023-02-02T06:32:38;96346.06;;;4.12;80.30
29239;BME280;16267;48.194;11.546;2023-02-02T06:35:05;96357.66;;;4.03;80.81
29239;BME280;16267;48.194;11.546;2023-02-02T06:37:30;96354.47;;;4.14;81.24
29239;BME280;16267;48.194;11.546;2023-02-02T06:39:59;96354.31;;;4.07;80.89
29239;BME280;16267;48.194;11.546;2023-02-02T06:42:24;96360.69;;;4.02;80.95
29239;BME280;16267;48.194;11.546;2023-02-02T06:44:50;96367.25;;;4.08;80.58
29239;BME280;16267;48.194;11.546;2023-02-02T06:47:16;96381.03;;;4.14;81.14
29239;BME280;16267;48.194;11.546;2023-02-02T06:49:42;96372.38;;;4.17;80.66
29239;BME280;16267;48.194;11.546;2023-02-02T06:52:08;96387.59;;;4.20;80.74
29239;BME280;16267;48.194;11.546;2023-02-02T06:54:33;96390.19;;;4.16;79.88
29239;BME280;16267;48.194;11.546;2023-02-02T06:56:59;96373.56;;;4.19;80.09
29239;BME280;16267;48.194;11.546;2023-02-02T06:59:25;96389.56;;;4.23;80.53
29239;BME280;16267;48.194;11.546;2023-02-02T07:01:51;96369.22;;;4.31;80.03
29239;BME280;16267;48.194;11.546;2023-02-02T07:04:17;96390.50;;;4.31;79.82
29239;BME280;16267;48.194;11.546;2023-02-02T07:06:43;96393.56;;;4.33;79.86
29239;BME280;16267;48.194;11.546;2023-02-02T07:09:09;96401.38;;;4.25;80.30
29239;BME280;16267;48.194;11.546;2023-02-02T07:11:35;96391.13;;;4.24;80.09
29239;BME280;16267;48.194;11.546;2023-02-02T07:14:02;96397.03;;;4.17;80.65
29239;BME280;16267;48.194;11.546;2023-02-02T07:16:28;96401.94;;;4.15;80.83
29239;BME280;16267;48.194;11.546;2023-02-02T07:18:54;96401.31;;;4.22;80.87
29239;BME280;16267;48.194;11.546;2023-02-02T07:21:24;96411.44;;;4.16;80.80
29239;BME280;16267;48.194;11.546;2023-02-02T07:23:50;96413.34;;;4.16;80.69
29239;BME280;16267;48.194;11.546;2023-02-02T07:26:18;96423.41;;;4.26;81.23
29239;BME280;16267;48.194;11.546;2023-02-02T07:28:44;96414.41;;;4.31;80.62
29239;BME280;16267;48.194;11.546;2023-02-02T07:31:22;96420.06;;;4.29;80.80
29239;BME280;16267;48.194;11.546;2023-02-02T07:33:49;96423.84;;;4.28;80.73
29239;BME280;16267;48.194;11.546;2023-02-02T07:36:18;96426.34;;;4.21;81.03
29239;BME280;16267;48.194;11.546;2023-02-02T07:38:47;96436.69;;;4.26;81.45
29239;BME280;16267;48.194;11.546;2023-02-02T07:41:14;96445.84;;;4.29;81.34
29239;BME280;16267;48.194;11.546;2023-02-02T07:43:40;96445.16;;;4.32;81.43
29239;BME280;16267;48.194;11.546;2023-02-02T07:46:09;96444.16;;;4.20;81.93
29239;BME280;16267;48.194;11.546;2023-02-02T07:48:35;96445.22;;;4.16;83.15
29239;BME280;16267;48.194;11.546;2023-02-02T07:51:06;96446.91;;;4.24;84.00
29239;BME280;16267;48.194;11.546;2023-02-02T07:53:33;96453.75;;;4.25;84.26
29239;BME280;16267;48.194;11.546;2023-02-02T07:56:14;96452.91;;;4.21;84.51
29239;BME280;16267;48.194;11.546;2023-02-02T07:58:41;96452.84;;;4.17;84.36
29239;BME280;16267;48.194;11.546;2023-02-02T08:01:12;96456.13;;;4.11;84.92
29239;BME280;16267;48.194;11.546;2023-02-02T08:03:39;96455.69;;;4.09;85.22
29239;BME280;16267;48.194;11.546;2023-02-02T08:06:18;96455.50;;;4.17;85.45
29239;BME280;16267;48.194;11.546;2023-02-02T08:08:46;96453.97;;;4.16;84.62
29239;BME280;16267;48.194;11.546;2023-02-02T08:11:14;96456.41;;;4.25;84.72
29239;BME280;16267;48.194;11.546;2023-02-02T08:13:41;96449.28;;;4.29;84.49
29239;BME280;16267;48.194;11.546;2023-02-02T08:16:08;96456.22;;;4.34;83.88
29239;BME280;16267;48.194;11.546;2023-02-02T08:18:35;96467.19;;;4.32;83.34
29239;BME280;16267;48.194;11.546;2023-02-02T08:21:04;96472.16;;;4.34;83.32
29239;BME280;16267;48.194;11.546;2023-02-02T08:23:30;96482.28;;;4.28;83.20
29239;BME280;16267;48.194;11.546;2023-02-02T08:26:12;96484.13;;;4.24;83.20
29239;BME280;16267;48.194;11.546;2023-02-02T08:28:40;96479.47;;;4.21;83.70
29239;BME280;16267;48.194;11.546;2023-02-02T08:31:09;96487.69;;;4.32;83.69
29239;BME280;16267;48.194;11.546;2023-02-02T08:33:36;96480.75;;;4.27;83.42
29239;BME280;16267;48.194;11.546;2023-02-02T08:36:03;96493.84;;;4.36;83.57
29239;BME280;16267;48.194;11.546;2023-02-02T08:38:29;96484.81;;;4.40;83.80
29239;BME280;16267;48.194;11.546;2023-02-02T08:40:55;96488.69;;;4.43;83.56
29239;BME280;16267;48.194;11.546;2023-02-02T08:43:28;96502.06;;;4.46;83.64
29239;BME280;16267;48.194;11.546;2023-02-02T08:45:54;96504.72;;;4.46;83.85
29239;BME280;16267;48.194;11.546;2023-02-02T08:48:20;96508.88;;;4.28;85.52
29239;BME280;16267;48.194;11.546;2023-02-02T08:50:54;96499.00;;;4.29;86.74
29239;BME280;16267;48.194;11.546;2023-02-02T08:53:21;96502.94;;;4.35;87.54
29239;BME280;16267;48.194;11.546;2023-02-02T08:55:50;96510.00;;;4.27;88.02
29239;BME280;16267;48.194;11.546;2023-02-02T08:58:21;96498.66;;;4.30;87.91
29239;BME280;16267;48.194;11.546;2023-02-02T09:00:47;96501.22;;;4.27;88.94
29239;BME280;16267;48.194;11.546;2023-02-02T09:03:13;96519.00;;;4.22;88.95
29239;BME280;16267;48.194;11.546;2023-02-02T09:05:40;96517.09;;;4.23;89.14
29239;BME280;16267;48.194;11.546;2023-02-02T09:08:06;96498.66;;;4.30;89.24
29239;BME280;16267;48.194;11.546;2023-02-02T09:10:34;96496.97;;;4.22;88.93
29239;BME280;16267;48.194;11.546;2023-02-02T09:13:06;96512.66;;;4.27;87.63
29239;BME280;16267;48.194;11.546;2023-02-02T09:15:37;96519.75;;;4.39;87.51
29239;BME280;16267;48.194;11.546;2023-02-02T09:18:06;96531.84;;;4.36;86.87
29239;BME280;16267;48.194;11.546;2023-02-02T09:20:32;96516.81;;;4.44;87.21
29239;BME280;16267;48.194;11.546;2023-02-02T09:23:00;96525.31;;;4.34;87.23
29239;BME280;16267;48.194;11.546;2023-02-02T09:25:29;96500.47;;;4.26;87.82
29239;BME280;16267;48.194;11.546;2023-02-02T09:27:55;96511.34;;;4.37;87.45
29239;BME280;16267;48.194;11.546;2023-02-02T09:30:22;96526.69;;;4.43;86.94
29239;BME280;16267;48.194;11.546;2023-02-02T09:32:48;96529.75;;;4.45;86.36
29239;BME280;16267;48.194;11.546;2023-02-02T09:35:16;96519.13;;;4.45;87.05
29239;BME280;16267;48.194;11.546;2023-02-02T09:37:44;96503.38;;;4.21;87.30
29239;BME280;16267;48.194;11.546;2023-02-02T09:40:17;96512.78;;;4.34;87.49
29239;BME280;16267;48.194;11.546;2023-02-02T09:43:09;96520.16;;;4.41;87.69
29239;BME280;16267;48.194;11.546;2023-02-02T09:48:42;96527.00;;;4.58;86.89
29239;BME280;16267;48.194;11.546;2023-02-02T09:51:22;96514.41;;;4.55;87.17
29239;BME280;16267;48.194;11.546;2023-02-02T09:54:20;96545.97;;;4.40;87.91
29239;BME280;16267;48.194;11.546;2023-02-02T09:56:50;96534.03;;;4.50;88.23
29239;BME280;16267;48.194;11.546;2023-02-02T09:59:46;96531.88;;;4.56;88.45
29239;BME280;16267;48.194;11.546;2023-02-02T10:02:25;96529.41;;;4.47;87.82
29239;BME280;16267;48.194;11.546;2023-02-02T10:04:59;96518.34;;;4.45;88.09
29239;BME280;16267;48.194;11.546;2023-02-02T10:07:39;96527.59;;;4.51;87.94
29239;BME280;16267;48.194;11.546;2023-02-02T10:10:15;96529.06;;;4.48;87.87
29239;BME280;16267;48.194;11.546;2023-02-02T10:12:58;96525.69;;;4.52;88.18
29239;BME280;16267;48.194;11.546;2023-02-02T10:15:53;96514.03;;;4.56;87.43
29239;BME280;16267;48.194;11.546;2023-02-02T10:18:53;96511.19;;;4.65;87.25
29239;BME280;16267;48.194;11.546;2023-02-02T10:24:20;96519.00;;;4.58;86.84
29239;BME280;16267;48.194;11.546;2023-02-02T10:27:00;96517.25;;;4.65;86.80
29239;BME280;16267;48.194;11.546;2023-02-02T10:29:38;96517.97;;;4.62;86.20
29239;BME280;16267;48.194;11.546;2023-02-02T10:32:25;96522.16;;;4.63;85.28
29239;BME280;16267;48.194;11.546;2023-02-02T10:41:05;96519.31;;;4.72;86.02
29239;BME280;16267;48.194;11.546;2023-02-02T10:44:11;96514.59;;;4.65;85.47
29239;BME280;16267;48.194;11.546;2023-02-02T10:46:46;96526.38;;;4.64;86.10
29239;BME280;16267;48.194;11.546;2023-02-02T10:49:20;96526.03;;;4.66;86.00
29239;BME280;16267;48.194;11.546;2023-02-02T10:55:01;96513.94;;;4.68;86.17
29239;BME280;16267;48.194;11.546;2023-02-02T10:58:05;96523.19;;;4.59;86.40
29239;BME280;16267;48.194;11.546;2023-02-02T11:03:14;96531.56;;;4.77;87.25
29239;BME280;16267;48.194;11.546;2023-02-02T11:05:40;96495.09;;;4.77;87.31
29239;BME280;16267;48.194;11.546;2023-02-02T11:08:42;96491.81;;;4.84;87.91
29239;BME280;16267;48.194;11.546;2023-02-02T11:11:33;96518.34;;;4.80;88.08
29239;BME280;16267;48.194;11.546;2023-02-02T11:16:39;96505.81;;;4.81;87.69
29239;BME280;16267;48.194;11.546;2023-02-02T11:22:04;96516.72;;;4.95;88.80
29239;BME280;16267;48.194;11.546;2023-02-02T11:24:47;96505.59;;;4.89;87.87
29239;BME280;16267;48.194;11.546;2023-02-02T11:27:23;96513.03;;;5.00;88.26
29239;BME280;16267;48.194;11.546;2023-02-02T11:29:56;96505.75;;;4.97;88.09
29239;BME280;16267;48.194;11.546;2023-02-02T11:32:30;96528.72;;;5.05;88.99
29239;BME280;16267;48.194;11.546;2023-02-02T11:37:35;96502.81;;;5.02;90.13
29239;BME280;16267;48.194;11.546;2023-02-02T11:43:32;96517.50;;;4.96;89.45
29239;BME280;16267;48.194;11.546;2023-02-02T11:46:21;96512.13;;;4.92;89.78
29239;BME280;16267;48.194;11.546;2023-02-02T11:49:15;96511.63;;;4.86;89.63
29239;BME280;16267;48.194;11.546;2023-02-02T11:52:01;96506.63;;;4.85;89.85
29239;BME280;16267;48.194;11.546;2023-02-02T11:54:34;96514.00;;;4.91;89.43
29239;BME280;16267;48.194;11.546;2023-02-02T11:57:06;96512.38;;;4.87;90.12
29239;BME280;16267;48.194;11.546;2023-02-02T12:02:34;96530.50;;;4.81;90.56
29239;BME280;16267;48.194;11.546;2023-02-02T12:07:35;96530.38;;;4.74;90.89
29239;BME280;16267;48.194;11.546;2023-02-02T12:10:27;96521.13;;;4.87;91.61
29239;BME280;16267;48.194;11.546;2023-02-02T12:13:44;96519.44;;;4.79;92.02
29239;BME280;16267;48.194;11.546;2023-02-02T12:16:38;96510.44;;;4.84;91.79
29239;BME280;16267;48.194;11.546;2023-02-02T12:27:52;96535.06;;;4.81;92.25
29239;BME280;16267;48.194;11.546;2023-02-02T12:34:02;96511.47;;;4.79;92.47
29239;BME280;16267;48.194;11.546;2023-02-02T12:47:36;96531.63;;;4.45;94.51
29239;BME280;16267;48.194;11.546;2023-02-02T12:59:21;96525.38;;;4.53;96.09
29239;BME280;16267;48.194;11.546;2023-02-02T13:02:03;96522.69;;;4.53;96.32
29239;BME280;16267;48.194;11.546;2023-02-02T13:07:46;96526.41;;;4.48;97.09
29239;BME280;16267;48.194;11.546;2023-02-02T13:10:29;96529.63;;;4.22;97.35
29239;BME280;16267;48.194;11.546;2023-02-02T13:13:02;96534.41;;;4.33;98.52
29239;BME280;16267;48.194;11.546;2023-02-02T13:15:35;96531.59;;;4.25;98.47
29239;BME280;16267;48.194;11.546;2023-02-02T13:18:07;96545.81;;;4.17;99.52
29239;BME280;16267;48.194;11.546;2023-02-02T13:20:44;96552.34;;;4.20;100.00
29239;BME280;16267;48.194;11.546;2023-02-02T13:25:56;96566.91;;;4.26;99.86
29239;BME280;16267;48.194;11.546;2023-02-02T13:31:46;96570.06;;;4.32;100.00
29239;BME280;16267;48.194;11.546;2023-02-02T13:36:47;96577.69;;;4.17;100.00
29239;BME280;16267;48.194;11.546;2023-02-02T13:39:32;96591.84;;;4.21;100.00
29239;BME280;16267;48.194;11.546;2023-02-02T13:42:00;96579.34;;;4.22;100.00
29239;BME280;16267;48.194;11.546;2023-02-02T13:44:34;96590.13;;;4.29;100.00
29239;BME280;16267;48.194;11.546;2023-02-02T13:47:09;96599.84;;;4.21;100.00
29239;BME280;16267;48.194;11.546;2023-02-02T13:49:49;96587.56;;;4.17;100.00
29239;BME280;16267;48.194;11.546;2023-02-02T13:55:37;96587.13;;;4.15;100.00
29239;BME280;16267;48.194;11.546;2023-02-02T13:58:37;96587.75;;;4.24;100.00
29239;BME280;16267;48.194;11.546;2023-02-02T14:01:11;96575.63;;;4.27;100.00
29239;BME280;16267;48.194;11.546;2023-02-02T14:03:43;96583.59;;;4.27;100.00
29239;BME280;16267;48.194;11.546;2023-02-02T14:06:19;96594.22;;;4.27;100.00
29239;BME280;16267;48.194;11.546;2023-02-02T14:09:02;96589.53;;;4.20;100.00
29239;BME280;16267;48.194;11.546;2023-02-02T14:11:36;96595.28;;;4.22;100.00
29239;BME280;16267;48.194;11.546;2023-02-02T14:14:15;96595.28;;;4.22;100.00
29239;BME280;16267;48.194;11.546;2023-02-02T14:17:00;96601.44;;;4.26;100.00
29239;BME280;16267;48.194;11.546;2023-02-02T14:24:49;96606.00;;;4.25;100.00
29239;BME280;16267;48.194;11.546;2023-02-02T14:32:41;96611.03;;;4.15;100.00
29239;BME280;16267;48.194;11.546;2023-02-02T14:38:05;96623.66;;;4.02;100.00
29239;BME280;16267;48.194;11.546;2023-02-02T14:40:47;96631.59;;;4.18;100.00
29239;BME280;16267;48.194;11.546;2023-02-02T14:43:44;96631.72;;;4.21;100.00
29239;BME280;16267;48.194;11.546;2023-02-02T14:51:25;96628.28;;;4.05;100.00
29239;BME280;16267;48.194;11.546;2023-02-02T14:53:57;96615.16;;;4.12;100.00
29239;BME280;16267;48.194;11.546;2023-02-02T14:56:47;96621.59;;;4.11;100.00
29239;BME280;16267;48.194;11.546;2023-02-02T14:59:27;96613.00;;;4.18;100.00
29239;BME280;16267;48.194;11.546;2023-02-02T15:02:22;96620.91;;;4.14;100.00
29239;BME280;16267;48.194;11.546;2023-02-02T15:04:48;96615.41;;;4.23;100.00
29239;BME280;16267;48.194;11.546;2023-02-02T15:09:51;96616.03;;;4.16;100.00
29239;BME280;16267;48.194;11.546;2023-02-02T15:12:37;96628.97;;;4.02;100.00
29239;BME280;16267;48.194;11.546;2023-02-02T15:15:23;96624.81;;;4.05;100.00
29239;BME280;16267;48.194;11.546;2023-02-02T15:18:11;96632.66;;;4.13;100.00
29239;BME280;16267;48.194;11.546;2023-02-02T15:20:47;96639.06;;;4.12;100.00
29239;BME280;16267;48.194;11.546;2023-02-02T15:26:20;96640.91;;;4.24;100.00
29239;BME280;16267;48.194;11.546;2023-02-02T15:28:59;96641.31;;;4.26;100.00
29239;BME280;16267;48.194;11.546;2023-02-02T15:31:35;96650.41;;;4.25;100.00
29239;BME280;16267;48.194;11.546;2023-02-02T15:36:38;96666.78;;;4.27;100.00
29239;BME280;16267;48.194;11.546;2023-02-02T15:39:38;96669.75;;;4.25;100.00
29239;BME280;16267;48.194;11.546;2023-02-02T15:42:15;96665.97;;;4.11;100.00
29239;BME280;16267;48.194;11.546;2023-02-02T15:45:01;96662.19;;;4.12;100.00